Time;durP1;ratioP1;P1;durP2;ratioP2;P2;SDS_P1;SDS_P2;PMS_P1;PMS_P2;Temp;Humidity;BMP_temperature;BMP_pressure;BME280_temperature;BME280_humidity;BME280_pressure;Samples;Min_cycle;Max_cycle;Signal;HPM_P1;HPM_P2
2024/04/07 00:00:26;;;;;;;25.30;12.70;;;;;;;8.51;75.18;97588.70;105017;1267;99285;-82
2024/04/07 00:03:13;;;;;;;20.30;13.00;;;;;;;8.48;75.38;97587.10;105194;1256;99243;-81
2024/04/07 00:05:41;;;;;;;23.40;13.80;;;;;;;8.46;75.53;97590.97;105096;1260;104809;-83
2024/04/07 00:08:09;;;;;;;18.10;11.90;;;;;;;8.49;75.68;97592.41;105183;1256;101566;-82
2024/04/07 00:10:37;;;;;;;20.10;12.30;;;;;;;8.48;75.66;97594.59;105110;1266;99375;-82
2024/04/07 00:13:05;;;;;;;17.60;11.10;;;;;;;8.45;75.64;97593.52;105097;1264;99403;-82
2024/04/07 00:15:33;;;;;;;18.20;9.90;;;;;;;8.44;75.60;97590.52;105149;1257;99752;-85
2024/04/07 00:18:00;;;;;;;14.90;10.00;;;;;;;8.39;75.52;97592.16;105038;1256;100480;-82
2024/04/07 00:20:28;;;;;;;14.50;9.90;;;;;;;8.37;75.59;97595.90;105114;1268;101453;-82
2024/04/07 00:22:55;;;;;;;17.20;10.50;;;;;;;8.34;75.65;97596.87;105155;1257;100075;-82
2024/04/07 00:25:23;;;;;;;16.00;12.40;;;;;;;8.27;75.87;97597.27;105066;1257;100462;-81
2024/04/07 00:27:50;;;;;;;22.10;13.90;;;;;;;8.21;76.11;97595.39;105167;1254;99224;-82
2024/04/07 00:30:18;;;;;;;21.30;11.80;;;;;;;8.21;76.22;97600.16;105085;1267;105087;-81
2024/04/07 00:32:45;;;;;;;16.70;11.90;;;;;;;8.20;76.21;97598.83;105111;1256;99298;-82
2024/04/07 00:35:13;;;;;;;21.50;11.20;;;;;;;8.20;76.04;97596.02;105139;1257;99361;-85
2024/04/07 00:37:41;;;;;;;16.80;10.50;;;;;;;8.20;76.15;97593.29;105039;1257;99874;-85
2024/04/07 00:40:09;;;;;;;16.30;10.20;;;;;;;8.21;76.21;97595.35;105066;1257;99788;-85
2024/04/07 00:42:36;;;;;;;20.30;10.30;;;;;;;8.20;76.29;97593.53;105012;1257;104983;-85
2024/04/07 00:45:04;;;;;;;17.60;11.30;;;;;;;8.20;76.27;97594.23;105086;1258;101503;-85
2024/04/07 00:47:32;;;;;;;16.70;10.70;;;;;;;8.19;76.38;97593.64;105058;1265;99607;-84
2024/04/07 00:50:00;;;;;;;15.10;9.60;;;;;;;8.17;76.30;97594.16;105011;1255;99320;-85
2024/04/07 00:52:27;;;;;;;15.70;10.20;;;;;;;8.15;76.42;97591.53;105057;1267;99836;-85
2024/04/07 00:54:55;;;;;;;19.20;10.90;;;;;;;8.12;76.69;97591.58;104938;1255;104904;-86
2024/04/07 00:57:24;;;;;;;18.80;11.30;;;;;;;8.04;76.88;97593.31;104900;1255;101647;-78
2024/04/07 00:59:53;;;;;;;34.00;12.50;;;;;;;7.96;77.03;97596.70;105139;1258;99327;-79
2024/04/07 01:02:21;;;;;;;19.20;11.90;;;;;;;7.90;77.11;97597.17;105166;1257;99285;-79
2024/04/07 01:04:48;;;;;;;19.70;12.30;;;;;;;7.90;77.23;97598.09;105056;1253;99269;-79
2024/04/07 01:07:16;;;;;;;17.80;11.90;;;;;;;7.94;77.30;97596.07;105043;1257;99267;-78
2024/04/07 01:09:44;;;;;;;17.60;11.20;;;;;;;7.95;77.26;97595.34;105143;1266;101538;-79
2024/04/07 01:12:15;;;;;;;15.40;10.10;;;;;;;7.96;77.20;97598.66;105128;1257;100332;-78
2024/04/07 01:14:43;;;;;;;14.40;10.10;;;;;;;7.96;77.11;97601.55;105094;1275;99363;-78
2024/04/07 01:17:10;;;;;;;14.90;9.00;;;;;;;7.96;77.27;97603.48;105138;1255;99305;-79
2024/04/07 01:19:38;;;;;;;13.20;9.10;;;;;;;7.96;77.20;97605.11;105167;1256;105187;-78
2024/04/07 01:22:05;;;;;;;17.00;9.40;;;;;;;7.95;77.21;97602.84;105167;1257;99266;-79
2024/04/07 01:24:33;;;;;;;13.50;8.60;;;;;;;7.95;77.23;97600.26;105125;1257;99275;-79
2024/04/07 01:27:00;;;;;;;17.30;9.80;;;;;;;7.94;77.27;97600.91;105128;1256;99333;-79
2024/04/07 01:29:28;;;;;;;14.50;10.10;;;;;;;7.92;77.14;97598.77;105075;1254;99276;-79
2024/04/07 01:31:55;;;;;;;14.30;9.60;;;;;;;7.89;77.17;97598.20;105150;1254;99441;-82
2024/04/07 01:34:23;;;;;;;18.30;9.50;;;;;;;7.87;77.09;97596.48;105125;1264;100596;-82
2024/04/07 01:36:50;;;;;;;13.10;8.70;;;;;;;7.86;77.29;97589.98;105103;1258;99269;-82
2024/04/07 01:39:18;;;;;;;10.70;7.80;;;;;;;7.86;77.27;97590.52;105151;1254;99324;-82
2024/04/07 01:41:45;;;;;;;9.10;7.20;;;;;;;7.82;77.04;97588.98;105053;1256;99286;-83
2024/04/07 01:44:13;;;;;;;13.20;8.30;;;;;;;7.77;76.93;97587.52;105206;1257;99342;-82
2024/04/07 01:46:40;;;;;;;16.30;11.40;;;;;;;7.69;77.00;97590.41;105226;1254;99287;-82
2024/04/07 01:49:08;;;;;;;18.60;11.00;;;;;;;7.65;77.19;97597.52;105134;1258;99384;-83
2024/04/07 01:51:35;;;;;;;17.40;11.30;;;;;;;7.62;77.40;97593.52;105200;1257;100613;-82
2024/04/07 01:54:03;;;;;;;14.60;10.50;;;;;;;7.58;77.26;97592.56;105178;1257;99302;-82
2024/04/07 01:56:31;;;;;;;19.00;10.90;;;;;;;7.59;77.26;97594.23;105141;1258;105060;-82
2024/04/07 01:58:59;;;;;;;13.70;8.10;;;;;;;7.58;77.25;97587.68;105156;1266;101343;-83
2024/04/07 02:01:27;;;;;;;13.70;8.90;;;;;;;7.57;77.17;97586.66;105171;1257;99353;-82
2024/04/07 02:03:54;;;;;;;14.40;9.50;;;;;;;7.53;77.18;97595.03;105140;1257;99276;-82
2024/04/07 02:06:22;;;;;;;16.20;9.80;;;;;;;7.48;77.33;97595.63;105143;1256;99721;-83
2024/04/07 02:08:50;;;;;;;14.70;9.10;;;;;;;7.43;77.39;97595.20;105149;1257;99355;-82
2024/04/07 02:11:17;;;;;;;12.80;9.00;;;;;;;7.41;77.52;97591.46;105162;1257;101482;-82
2024/04/07 02:13:45;;;;;;;12.10;8.60;;;;;;;7.38;77.44;97587.52;105152;1258;99968;-82
2024/04/07 02:16:12;;;;;;;11.70;8.30;;;;;;;7.34;77.51;97589.27;105193;1254;99413;-83
2024/04/07 02:18:40;;;;;;;14.80;8.60;;;;;;;7.30;77.53;97588.52;105234;1254;99759;-82
2024/04/07 02:21:09;;;;;;;12.30;8.60;;;;;;;7.27;77.68;97584.28;104996;1256;104873;-82
2024/04/07 02:23:36;;;;;;;11.30;7.70;;;;;;;7.23;77.92;97582.64;105138;1253;99260;-82
2024/04/07 02:26:07;;;;;;;10.30;6.60;;;;;;;7.21;77.81;97582.27;105116;1267;99294;-83
2024/04/07 02:28:34;;;;;;;9.00;6.30;;;;;;;7.20;77.75;97581.88;105172;1267;99351;-82
2024/04/07 02:31:03;;;;;;;11.20;7.20;;;;;;;7.17;77.66;97583.98;105081;1257;99912;-85
2024/04/07 02:33:31;;;;;;;10.00;7.00;;;;;;;7.15;77.68;97577.13;105047;1266;103957;-85
2024/04/07 02:35:59;;;;;;;11.80;8.00;;;;;;;7.15;77.63;97578.74;105116;1266;101133;-85
2024/04/07 02:38:26;;;;;;;9.90;6.90;;;;;;;7.14;77.65;97577.29;104917;1254;100632;-85
2024/04/07 02:40:54;;;;;;;10.80;8.20;;;;;;;7.13;77.55;97580.25;105013;1264;99390;-85
2024/04/07 02:43:21;;;;;;;16.50;9.40;;;;;;;7.10;77.59;97585.77;105016;1254;99298;-85
2024/04/07 02:48:34;;;;;;;10.30;6.70;;;;;;;7.03;77.77;97589.11;105114;1256;101687;-78
2024/04/07 02:51:01;;;;;;;9.70;6.70;;;;;;;6.98;77.67;97591.90;105249;1257;99406;-82
2024/04/07 02:53:29;;;;;;;9.70;7.20;;;;;;;6.96;77.85;97589.80;105065;1257;100562;-83
2024/04/07 02:55:57;;;;;;;10.40;6.80;;;;;;;6.95;77.87;97592.66;105115;1254;99734;-83
2024/04/07 02:58:24;;;;;;;12.10;8.80;;;;;;;6.94;77.97;97594.80;105098;1256;99285;-82
2024/04/07 03:00:52;;;;;;;14.90;8.80;;;;;;;6.92;78.07;97595.67;105041;1257;99382;-83
2024/04/07 03:03:19;;;;;;;11.20;8.00;;;;;;;6.91;77.99;97595.48;105037;1269;106559;-82
2024/04/07 03:05:47;;;;;;;12.40;7.40;;;;;;;6.89;77.97;97593.86;105161;1257;99256;-82
2024/04/07 03:08:14;;;;;;;10.70;7.10;;;;;;;6.84;78.04;97594.05;105104;1257;99800;-83
2024/04/07 03:10:42;;;;;;;9.30;7.10;;;;;;;6.83;78.02;97597.25;105117;1266;105102;-82
2024/04/07 03:13:10;;;;;;;12.40;7.70;;;;;;;6.82;77.94;97594.84;105121;1258;101501;-82
2024/04/07 03:15:38;;;;;;;10.50;7.40;;;;;;;6.83;78.08;97596.95;105006;1254;99994;-83
2024/04/07 03:18:06;;;;;;;11.60;7.50;;;;;;;6.82;78.03;97600.17;105017;1257;99366;-82
2024/04/07 03:20:34;;;;;;;12.70;8.00;;;;;;;6.79;78.27;97599.36;105227;1256;99787;-83
2024/04/07 03:23:02;;;;;;;12.10;7.60;;;;;;;6.73;78.48;97599.15;105150;1256;99302;-83
2024/04/07 03:25:30;;;;;;;13.60;7.10;;;;;;;6.70;78.50;97597.61;105126;1257;101309;-83
2024/04/07 03:27:57;;;;;;;10.90;7.40;;;;;;;6.69;78.59;97597.76;105110;1267;100604;-83
2024/04/07 03:30:25;;;;;;;10.70;7.40;;;;;;;6.67;78.56;97597.10;105106;1257;99317;-83
2024/04/07 03:32:53;;;;;;;12.00;8.30;;;;;;;6.63;78.65;97597.34;105206;1257;99196;-82
2024/04/07 03:35:20;;;;;;;13.00;8.70;;;;;;;6.59;78.78;97598.02;105155;1257;104819;-83
2024/04/07 03:37:48;;;;;;;13.60;9.60;;;;;;;6.57;78.79;97596.25;105158;1264;101499;-83
2024/04/07 03:40:16;;;;;;;15.30;10.10;;;;;;;6.58;78.90;97597.29;105130;1264;99444;-82
2024/04/07 03:42:45;;;;;;;14.60;9.70;;;;;;;6.59;79.06;97600.83;105040;1258;99289;-82
2024/04/07 03:45:12;;;;;;;13.90;8.00;;;;;;;6.62;79.06;97599.73;105138;1257;99718;-83
2024/04/07 03:47:40;;;;;;;9.70;7.20;;;;;;;6.64;78.98;97603.34;105185;1258;104018;-79
2024/04/07 03:50:08;;;;;;;10.40;7.50;;;;;;;6.64;78.90;97603.34;105103;1270;101425;-80
2024/04/07 03:52:36;;;;;;;18.40;9.80;;;;;;;6.61;78.94;97603.70;105115;1257;100483;-82
2024/04/07 03:55:04;;;;;;;15.20;9.30;;;;;;;6.55;79.23;97603.07;105098;1273;99298;-82
2024/04/07 03:57:32;;;;;;;13.80;9.70;;;;;;;6.55;79.38;97607.02;105125;1257;99782;-83
2024/04/07 03:59:59;;;;;;;13.40;9.50;;;;;;;6.57;79.38;97610.27;105112;1266;106300;-83
2024/04/07 04:02:30;;;;;;;14.10;8.10;;;;;;;6.57;79.41;97612.58;105094;1269;101378;-83
2024/04/07 04:05:02;;;;;;;10.60;7.20;;;;;;;6.59;79.52;97615.92;105182;1256;99753;-84
2024/04/07 04:07:32;;;;;;;8.20;7.10;;;;;;;6.59;79.47;97620.38;105168;1254;100572;-83
2024/04/07 04:10:01;;;;;;;10.50;8.10;;;;;;;6.58;79.49;97624.90;105106;1257;99791;-83
2024/04/07 04:12:29;;;;;;;12.30;8.90;;;;;;;6.59;79.47;97625.88;105134;1254;104008;-82
2024/04/07 04:14:58;;;;;;;15.40;9.80;;;;;;;6.61;79.52;97628.02;105216;1258;101502;-83
2024/04/07 04:17:26;;;;;;;15.70;10.70;;;;;;;6.61;79.62;97625.36;105179;1256;100568;-86
2024/04/07 04:19:53;;;;;;;18.40;12.40;;;;;;;6.61;79.91;97634.21;105063;1256;99312;-85
2024/04/07 04:22:21;;;;;;;20.60;10.50;;;;;;;6.63;79.87;97633.83;105003;1267;99529;-86
2024/04/07 04:24:48;;;;;;;16.40;9.70;;;;;;;6.62;79.80;97636.42;104961;1257;105215;-85
2024/04/07 04:27:16;;;;;;;15.40;8.60;;;;;;;6.61;79.85;97637.30;105093;1256;100021;-85
2024/04/07 04:29:44;;;;;;;17.10;10.00;;;;;;;6.62;79.96;97641.64;104966;1267;100512;-85
2024/04/07 04:32:12;;;;;;;17.10;11.40;;;;;;;6.60;79.88;97638.68;105031;1256;99695;-85
2024/04/07 04:34:39;;;;;;;14.50;10.20;;;;;;;6.60;79.98;97636.73;104978;1269;99801;-85
2024/04/07 04:37:07;;;;;;;16.10;10.60;;;;;;;6.62;80.21;97636.08;105032;1254;99301;-85
2024/04/07 04:39:35;;;;;;;15.60;10.30;;;;;;;6.64;80.35;97640.23;104969;1257;101230;-85
2024/04/07 04:42:02;;;;;;;15.60;10.70;;;;;;;6.64;80.50;97643.85;104905;1256;99994;-84
2024/04/07 04:44:29;;;;;;;16.90;11.10;;;;;;;6.63;80.72;97643.23;104961;1257;99263;-85
2024/04/07 04:46:57;;;;;;;19.50;10.20;;;;;;;6.67;80.82;97646.34;105125;1257;99279;-86
2024/04/07 04:49:25;;;;;;;19.60;11.00;;;;;;;6.73;80.87;97648.02;104973;1257;99352;-85
2024/04/07 04:51:55;;;;;;;24.80;13.40;;;;;;;6.78;80.82;97644.78;105036;1256;101638;-85
2024/04/07 04:54:23;;;;;;;19.00;12.90;;;;;;;6.83;80.98;97647.73;104981;1257;100092;-84
2024/04/07 04:56:50;;;;;;;17.80;12.60;;;;;;;6.89;81.18;97653.05;104897;1256;99942;-83
2024/04/07 04:59:18;;;;;;;20.20;12.00;;;;;;;6.95;81.19;97652.54;104968;1258;99283;-85
2024/04/07 05:01:45;;;;;;;15.90;10.40;;;;;;;7.01;81.25;97650.90;105033;1257;99288;-83
2024/04/07 05:04:13;;;;;;;16.90;9.70;;;;;;;7.07;81.23;97653.27;105109;1257;99330;-85
2024/04/07 05:06:41;;;;;;;19.90;11.90;;;;;;;7.12;81.30;97654.45;105041;1254;100482;-85
2024/04/07 05:09:09;;;;;;;17.40;11.80;;;;;;;7.17;81.38;97655.98;105009;1268;99305;-86
2024/04/07 05:11:37;;;;;;;22.40;14.40;;;;;;;7.22;81.37;97657.50;105034;1257;99705;-85
2024/04/07 05:14:05;;;;;;;26.10;15.60;;;;;;;7.29;81.68;97648.83;104986;1257;105099;-85
2024/04/07 05:16:32;;;;;;;25.00;16.80;;;;;;;7.35;81.81;97649.97;105099;1257;100538;-78
2024/04/07 05:19:00;;;;;;;25.70;12.90;;;;;;;7.43;81.83;97642.36;105132;1267;99315;-78
2024/04/07 05:21:28;;;;;;;15.90;11.10;;;;;;;7.52;82.07;97640.44;105157;1269;99372;-78
2024/04/07 05:23:56;;;;;;;17.00;11.50;;;;;;;7.60;82.20;97642.29;105095;1257;99813;-78
2024/04/07 05:26:24;;;;;;;17.90;12.00;;;;;;;7.69;82.26;97639.97;105143;1253;103768;-78
2024/04/07 05:28:51;;;;;;;18.50;11.50;;;;;;;7.77;82.37;97636.91;105203;1266;101735;-78
2024/04/07 05:31:19;;;;;;;18.70;9.70;;;;;;;7.84;82.45;97631.63;105099;1256;99295;-85
2024/04/07 05:33:48;;;;;;;13.20;9.60;;;;;;;7.93;82.53;97627.62;104939;1254;102966;-85
2024/04/07 05:36:16;;;;;;;14.50;9.30;;;;;;;8.02;82.61;97632.43;104976;1270;99739;-85
2024/04/07 05:38:44;;;;;;;15.70;8.50;;;;;;;8.12;82.67;97629.60;104943;1257;105043;-85
2024/04/07 05:41:12;;;;;;;13.40;8.90;;;;;;;8.21;82.94;97622.50;104967;1254;101705;-85
2024/04/07 05:43:39;;;;;;;14.20;8.70;;;;;;;8.29;83.07;97617.39;104957;1257;100493;-85
2024/04/07 05:46:08;;;;;;;9.40;7.50;;;;;;;8.38;83.06;97616.16;105043;1256;99314;-85
2024/04/07 05:48:37;;;;;;;10.50;6.50;;;;;;;8.47;83.24;97621.98;105065;1254;99689;-85
2024/04/07 05:51:05;;;;;;;9.10;6.70;;;;;;;8.55;83.27;97619.54;104949;1268;105015;-84
2024/04/07 05:53:32;;;;;;;12.60;7.20;;;;;;;8.63;83.34;97616.59;105003;1256;101675;-85
2024/04/07 05:56:00;;;;;;;10.20;7.30;;;;;;;8.71;83.34;97617.32;104994;1269;99404;-85
2024/04/07 05:58:27;;;;;;;13.50;8.10;;;;;;;8.80;83.42;97618.84;104973;1256;99296;-85
2024/04/07 06:00:55;;;;;;;13.50;8.90;;;;;;;8.89;83.41;97615.77;105008;1253;99302;-85
2024/04/07 06:03:22;;;;;;;18.40;11.10;;;;;;;8.97;83.40;97617.16;105136;1264;104616;-86
2024/04/07 06:05:50;;;;;;;18.50;10.90;;;;;;;9.07;83.46;97617.98;104981;1256;100609;-86
2024/04/07 06:08:18;;;;;;;18.40;9.90;;;;;;;9.17;83.66;97621.55;104915;1257;99314;-86
2024/04/07 06:10:45;;;;;;;18.00;10.60;;;;;;;9.26;83.86;97622.65;104951;1257;99279;-85
2024/04/07 06:13:13;;;;;;;15.20;10.00;;;;;;;9.36;84.06;97620.27;105088;1252;99272;-85
2024/04/07 06:15:40;;;;;;;16.70;10.70;;;;;;;9.46;83.78;97618.96;105071;1256;99279;-82
2024/04/07 06:18:08;;;;;;;16.00;9.20;;;;;;;9.55;83.61;97620.95;105188;1257;99375;-82
2024/04/07 06:20:35;;;;;;;12.30;8.40;;;;;;;9.66;83.85;97624.41;105089;1256;99272;-78
2024/04/07 06:23:03;;;;;;;10.20;7.70;;;;;;;9.78;83.97;97627.95;105121;1267;99285;-78
2024/04/07 06:25:30;;;;;;;12.30;8.10;;;;;;;9.90;83.88;97628.70;105082;1254;99787;-78
2024/04/07 06:27:58;;;;;;;12.10;8.30;;;;;;;10.00;83.89;97627.98;105084;1253;104853;-78
2024/04/07 06:30:28;;;;;;;11.60;8.40;;;;;;;10.11;83.86;97627.11;105115;1270;99301;-80
2024/04/07 06:32:56;;;;;;;12.40;8.80;;;;;;;10.23;84.05;97633.02;105078;1264;100601;-82
2024/04/07 06:35:23;;;;;;;15.00;9.10;;;;;;;10.33;83.90;97639.20;105095;1257;99265;-82
2024/04/07 06:37:51;;;;;;;15.60;8.70;;;;;;;10.43;83.69;97643.42;105088;1257;100592;-83
2024/04/07 06:40:18;;;;;;;12.90;8.00;;;;;;;10.54;83.62;97650.13;105203;1266;105021;-79
2024/04/07 06:42:46;;;;;;;11.90;8.60;;;;;;;10.65;83.63;97651.22;105175;1258;101503;-78
2024/04/07 06:45:14;;;;;;;11.30;8.40;;;;;;;10.76;83.87;97650.77;105009;1269;99283;-78
2024/04/07 06:47:41;;;;;;;13.60;7.90;;;;;;;10.87;83.93;97653.60;105122;1256;99365;-78
2024/04/07 06:50:09;;;;;;;10.70;7.80;;;;;;;10.96;83.76;97653.19;105089;1256;100923;-78
2024/04/07 06:52:37;;;;;;;15.00;8.30;;;;;;;11.07;83.71;97654.06;105173;1257;105973;-78
2024/04/07 06:55:06;;;;;;;10.10;7.10;;;;;;;11.17;83.57;97653.73;105096;1272;100681;-78
2024/04/07 06:57:33;;;;;;;11.00;7.90;;;;;;;11.28;83.47;97649.48;105037;1254;99738;-78
2024/04/07 07:00:01;;;;;;;11.80;7.50;;;;;;;11.39;83.38;97655.27;105204;1257;99337;-85
2024/04/07 07:02:29;;;;;;;10.60;7.30;;;;;;;11.50;83.51;97653.02;105069;1257;100582;-85
2024/04/07 07:04:56;;;;;;;11.00;7.70;;;;;;;11.63;83.49;97649.24;105070;1272;99266;-86
2024/04/07 07:07:23;;;;;;;10.40;6.90;;;;;;;11.76;83.43;97644.44;105018;1264;100490;-85
2024/04/07 07:09:51;;;;;;;12.20;7.20;;;;;;;11.89;83.38;97645.45;104959;1256;99273;-85
2024/04/07 07:12:19;;;;;;;9.10;6.50;;;;;;;12.04;83.46;97643.69;105015;1256;99286;-84
2024/04/07 07:14:47;;;;;;;9.30;6.70;;;;;;;12.17;83.28;97636.17;105050;1257;99349;-85
2024/04/07 07:17:14;;;;;;;9.70;6.90;;;;;;;12.30;83.06;97639.14;105344;1258;99265;-79
2024/04/07 07:19:42;;;;;;;12.30;6.20;;;;;;;12.45;83.10;97638.38;105545;1253;101498;-80
2024/04/07 07:22:10;;;;;;;10.20;6.30;;;;;;;12.63;82.91;97634.73;105359;1256;100139;-79
2024/04/07 07:24:37;;;;;;;11.30;7.40;;;;;;;12.80;82.83;97634.81;105208;1256;99299;-79
2024/04/07 07:27:05;;;;;;;11.50;6.50;;;;;;;12.97;82.70;97633.93;105061;1257;99692;-80
2024/04/07 07:29:32;;;;;;;10.60;6.70;;;;;;;13.17;82.47;97634.37;105011;1258;104989;-79
2024/04/07 07:32:00;;;;;;;11.00;7.10;;;;;;;13.39;82.43;97629.50;105048;1254;99340;-78
2024/04/07 07:34:27;;;;;;;9.10;5.50;;;;;;;13.66;82.44;97626.21;105009;1264;100068;-79
2024/04/07 07:36:55;;;;;;;8.10;4.90;;;;;;;13.97;82.28;97625.43;104943;1254;99274;-78
2024/04/07 07:39:22;;;;;;;8.10;5.00;;;;;;;14.34;81.94;97624.96;105022;1254;99392;-79
2024/04/07 07:41:50;;;;;;;8.60;4.80;;;;;;;14.77;81.24;97624.35;105067;1253;99260;-79
2024/04/07 07:44:17;;;;;;;4.70;3.60;;;;;;;15.24;80.98;97620.78;105136;1257;100123;-79
2024/04/07 07:46:45;;;;;;;7.00;4.40;;;;;;;15.73;80.79;97616.48;105116;1257;99305;-81
2024/04/07 07:49:12;;;;;;;6.10;3.70;;;;;;;16.24;79.64;97614.18;105016;1257;100607;-81
2024/04/07 07:51:40;;;;;;;6.00;3.60;;;;;;;16.75;78.95;97619.73;104982;1256;100713;-81
2024/04/07 07:54:07;;;;;;;5.70;4.10;;;;;;;17.30;77.94;97619.42;105073;1257;99269;-81
2024/04/07 07:56:35;;;;;;;4.60;3.90;;;;;;;17.84;76.50;97621.92;105006;1266;99355;-79
2024/04/07 07:59:02;;;;;;;7.30;4.10;;;;;;;18.29;75.31;97616.98;104991;1257;100601;-79
2024/04/07 08:01:31;;;;;;;6.00;4.20;;;;;;;18.69;74.26;97620.75;105006;1253;99273;-79
2024/04/07 08:03:58;;;;;;;5.80;3.40;;;;;;;19.12;73.70;97616.32;105027;1257;99873;-79
2024/04/07 08:06:26;;;;;;;6.90;3.40;;;;;;;19.54;72.83;97619.36;105016;1257;99372;-79
2024/04/07 08:08:53;;;;;;;5.90;3.00;;;;;;;19.97;71.74;97619.40;105024;1257;100505;-79
2024/04/07 08:11:21;;;;;;;4.10;2.80;;;;;;;20.41;70.50;97618.80;104986;1257;99399;-79
2024/04/07 08:13:50;;;;;;;4.10;3.20;;;;;;;20.84;69.97;97616.00;104989;1257;99278;-80
2024/04/07 08:16:18;;;;;;;3.90;3.20;;;;;;;21.26;68.84;97615.63;105099;1254;99827;-81
2024/04/07 08:18:45;;;;;;;4.60;3.30;;;;;;;21.69;67.54;97614.54;105083;1267;104516;-80
2024/04/07 08:21:13;;;;;;;4.30;3.00;;;;;;;22.08;66.22;97609.45;105042;1257;99286;-81
2024/04/07 08:23:40;;;;;;;3.40;2.60;;;;;;;22.45;65.38;97606.39;105022;1254;99279;-80
2024/04/07 08:26:08;;;;;;;7.00;2.90;;;;;;;22.85;64.14;97606.74;104939;1254;99768;-81
2024/04/07 08:28:35;;;;;;;4.00;2.60;;;;;;;23.12;62.95;97606.06;104951;1256;99225;-81
2024/04/07 08:31:03;;;;;;;4.40;2.60;;;;;;;23.41;62.02;97606.16;105040;1254;100642;-81
2024/04/07 08:33:30;;;;;;;4.30;2.60;;;;;;;23.65;60.88;97603.92;105093;1266;101342;-80
2024/04/07 08:35:58;;;;;;;3.30;2.80;;;;;;;23.87;60.31;97606.17;105045;1256;99388;-81
2024/04/07 08:38:25;;;;;;;4.60;2.30;;;;;;;24.14;59.34;97605.71;105083;1267;99295;-81
2024/04/07 08:40:53;;;;;;;3.50;2.60;;;;;;;24.42;59.17;97602.91;104970;1256;99982;-81
2024/04/07 08:43:21;;;;;;;6.10;2.70;;;;;;;24.71;58.51;97601.30;105049;1256;99282;-81
2024/04/07 08:45:50;;;;;;;3.80;2.50;;;;;;;25.00;58.15;97601.61;105127;1257;101296;-81
2024/04/07 08:48:19;;;;;;;3.20;2.90;;;;;;;25.28;57.06;97603.38;105142;1254;99637;-81
2024/04/07 08:50:48;;;;;;;5.20;3.00;;;;;;;25.46;55.60;97601.80;105098;1256;99347;-81
2024/04/07 08:53:18;;;;;;;4.60;2.30;;;;;;;25.63;54.89;97597.00;105093;1255;99803;-81
2024/04/07 08:55:48;;;;;;;3.40;2.10;;;;;;;25.81;54.26;97595.58;105207;1254;104551;-80
2024/04/07 08:58:16;;;;;;;3.90;2.40;;;;;;;25.94;53.47;97590.25;105038;1257;101353;-80
2024/04/07 09:00:45;;;;;;;3.20;2.90;;;;;;;26.05;52.71;97589.86;105048;1258;100069;-80
2024/04/07 09:03:14;;;;;;;4.20;2.50;;;;;;;26.19;52.20;97584.75;105026;1256;99273;-81
2024/04/07 09:05:42;;;;;;;5.80;2.90;;;;;;;26.35;52.35;97580.41;105272;1257;99714;-80
2024/04/07 09:08:09;;;;;;;3.60;2.20;;;;;;;26.51;51.75;97578.70;105095;1257;105050;-80
2024/04/07 09:10:37;;;;;;;2.40;2.10;;;;;;;26.69;51.13;97580.67;105109;1254;101396;-81
2024/04/07 09:13:04;;;;;;;3.40;2.10;;;;;;;26.82;49.86;97577.33;105119;1257;99247;-80
2024/04/07 09:15:32;;;;;;;2.00;1.70;;;;;;;26.90;48.35;97577.23;105194;1254;99394;-80
2024/04/07 09:17:59;;;;;;;2.00;1.50;;;;;;;26.99;47.84;97577.36;105064;1256;99275;-81
2024/04/07 09:20:27;;;;;;;2.40;1.50;;;;;;;27.11;46.50;97574.30;104990;1254;105099;-80
2024/04/07 09:22:54;;;;;;;2.50;1.10;;;;;;;27.17;45.82;97572.70;104980;1256;101254;-80
2024/04/07 09:25:23;;;;;;;3.30;1.60;;;;;;;27.21;44.77;97571.10;104984;1269;99397;-81
2024/04/07 09:27:50;;;;;;;2.20;1.60;;;;;;;27.19;43.61;97565.73;105064;1257;100575;-81
2024/04/07 09:30:19;;;;;;;2.20;1.60;;;;;;;27.26;43.66;97561.13;105216;1256;100620;-80
2024/04/07 09:32:49;;;;;;;2.60;1.40;;;;;;;27.37;44.00;97555.36;105281;1257;104733;-80
2024/04/07 09:35:17;;;;;;;1.80;1.60;;;;;;;27.61;43.79;97557.09;105161;1256;101490;-81
2024/04/07 09:37:44;;;;;;;1.80;1.40;;;;;;;27.65;42.58;97554.77;105084;1256;99989;-81
2024/04/07 09:40:12;;;;;;;1.50;1.30;;;;;;;27.70;41.46;97552.20;105038;1254;99875;-80
2024/04/07 09:42:40;;;;;;;4.40;1.70;;;;;;;27.80;41.27;97549.63;105168;1253;99875;-81
2024/04/07 09:45:10;;;;;;;1.70;1.60;;;;;;;27.78;40.99;97548.70;105294;1257;105091;-80
2024/04/07 09:47:44;;;;;;;1.60;1.30;;;;;;;27.76;40.79;97543.16;105142;1269;101173;-81
2024/04/07 09:50:33;;;;;;;3.00;1.70;;;;;;;27.93;41.00;97540.55;105047;1257;99965;-80
2024/04/07 09:53:13;;;;;;;2.50;1.70;;;;;;;28.21;41.05;97535.21;105024;1254;99388;-81
2024/04/07 09:55:43;;;;;;;3.60;1.50;;;;;;;28.45;40.29;97532.86;105046;1257;100613;-81
2024/04/07 09:58:13;;;;;;;3.40;1.30;;;;;;;28.47;39.79;97529.38;105056;1256;104993;-81
2024/04/07 10:00:41;;;;;;;1.90;1.70;;;;;;;28.42;38.82;97527.63;105082;1254;101474;-81
2024/04/07 10:03:09;;;;;;;2.20;1.30;;;;;;;28.41;38.76;97525.92;105085;1257;99993;-81
2024/04/07 10:05:37;;;;;;;1.50;1.30;;;;;;;28.42;38.37;97526.91;105136;1256;99344;-81
2024/04/07 10:08:05;;;;;;;1.40;1.20;;;;;;;28.47;38.00;97522.25;105016;1256;99356;-81
2024/04/07 10:10:33;;;;;;;2.70;1.40;;;;;;;28.56;37.82;97525.07;105076;1258;105168;-81
2024/04/07 10:13:08;;;;;;;2.40;1.70;;;;;;;28.56;37.41;97520.39;105139;1255;101827;-81
2024/04/07 10:15:37;;;;;;;1.90;1.10;;;;;;;28.71;37.54;97519.34;105181;1257;100219;-80
2024/04/07 10:18:18;;;;;;;1.50;1.00;;;;;;;28.87;37.32;97516.35;105155;1256;99260;-81
2024/04/07 10:20:54;;;;;;;1.10;1.00;;;;;;;29.02;36.77;97515.08;104866;1254;99321;-81
2024/04/07 10:23:26;;;;;;;3.50;1.30;;;;;;;29.12;35.79;97510.75;105098;1257;103989;-81
2024/04/07 10:26:03;;;;;;;3.80;1.70;;;;;;;29.17;35.94;97506.23;105029;1256;101593;-81
2024/04/07 10:28:47;;;;;;;1.70;1.60;;;;;;;29.30;35.60;97506.56;104861;1269;100804;-81
2024/04/07 10:31:31;;;;;;;1.20;1.10;;;;;;;29.40;35.39;97502.32;105043;1257;99372;-82
2024/04/07 10:33:58;;;;;;;1.00;0.90;;;;;;;29.48;34.22;97500.14;105032;1254;99776;-81
2024/04/07 10:36:26;;;;;;;1.80;0.90;;;;;;;29.56;33.35;97501.14;104966;1267;105501;-80
2024/04/07 10:38:58;;;;;;;1.30;0.90;;;;;;;29.56;33.14;97498.36;104956;1259;100458;-81
2024/04/07 10:41:27;;;;;;;;;;;;;;;29.45;32.97;97496.45;105048;1256;99970;-81
2024/04/07 10:43:56;;;;;;;0.90;0.80;;;;;;;29.44;32.97;97496.16;105080;1254;99275;-81
2024/04/07 10:46:25;;;;;;;2.70;1.00;;;;;;;29.56;32.49;97489.06;105146;1256;99804;-81
2024/04/07 10:48:53;;;;;;;1.50;1.00;;;;;;;29.62;31.92;97489.52;105031;1254;105042;-81
2024/04/07 10:51:21;;;;;;;2.70;1.00;;;;;;;29.67;31.35;97490.17;104711;1261;100264;-81
2024/04/07 10:54:06;;;;;;;0.80;0.60;;;;;;;29.70;31.53;97489.08;104987;1254;100598;-81
2024/04/07 10:56:35;;;;;;;1.20;1.10;;;;;;;29.78;30.69;97485.99;105061;1257;99278;-81
2024/04/07 10:59:03;;;;;;;0.60;0.60;;;;;;;29.80;30.48;97483.98;105092;1257;99724;-81
2024/04/07 11:01:31;;;;;;;0.90;0.90;;;;;;;29.67;29.76;97481.65;104987;1257;167753;-80
2024/04/07 11:03:59;;;;;;;2.00;1.10;;;;;;;29.57;30.63;97475.90;105188;1257;101499;-80
2024/04/07 11:06:27;;;;;;;0.80;0.80;;;;;;;29.71;31.74;97474.44;105113;1256;100620;-81
2024/04/07 11:08:55;;;;;;;2.20;0.70;;;;;;;29.93;30.98;97469.15;105268;1270;99688;-80
2024/04/07 11:11:24;;;;;;;5.10;2.60;;;;;;;30.06;30.74;97467.67;105187;1256;99777;-80
2024/04/07 11:13:52;;;;;;;0.80;0.70;;;;;;;30.23;30.89;97463.77;105129;1252;104971;-81
2024/04/07 11:16:20;;;;;;;0.80;0.70;;;;;;;30.41;30.46;97463.21;105224;1256;101995;-81
2024/04/07 11:18:47;;;;;;;0.90;0.70;;;;;;;30.53;30.43;97461.52;105061;1257;99357;-81
2024/04/07 11:21:15;;;;;;;1.10;0.50;;;;;;;30.63;29.87;97462.31;105025;1256;99327;-81
2024/04/07 11:23:42;;;;;;;1.00;0.70;;;;;;;30.68;29.81;97458.93;105109;1257;99214;-81
2024/04/07 11:26:10;;;;;;;0.80;0.60;;;;;;;30.71;29.83;97455.31;105007;1256;104918;-81